Station Historical Data
Daily Summary for May 3, 2017 Units:  English    Metric   Both
« Previous Day
Next Day »
Daily Weekly Monthly Yearly Custom
  High: Low: Average:
Temperature: 84.0 °F 56.0 °F 69.5 °F
Dew Point: 51.5 °F 42.0 °F 46.2 °F
Humidity: 81% 24% 46%
Wind Speed: 1.0mph 0.0mph 0mph
Wind Gust: 3.0mph - -
Wind- - West
Pressure: 30.10 in 29.95 in -
Precipitation: 0.00 in    
Historical Graphs
 
 
Tabular Data for May 3, 2017
Time Temperature Dew Point Pressure Wind Wind Speed Wind Gust Humidity Rainfall Rate (Hourly) solar Conditions
00:00 59.5 °F 43.8 °F 30.06 in Calm     56% 0.00 in WeatherDisplay:10.37 W/m2 SCT
00:15 59.5 °F 42.8 °F 30.06 in Calm     54% 0.00 in WeatherDisplay:10.37 W/m2 SCT
00:30 59.5 °F 42.8 °F 30.06 in Calm     54% 0.00 in WeatherDisplay:10.37 W/m2 SCT
00:45 59.5 °F 42.8 °F 30.06 in Calm     54% 0.00 in WeatherDisplay:10.37 W/m2 SCT
01:00 59.8 °F 42.7 °F 30.06 in Calm     53% 0.00 in WeatherDisplay:10.37 W/m2 SCT
01:15 59.7 °F 42.0 °F 30.06 in Calm     52% 0.00 in WeatherDisplay:10.37 W/m2 SCT
01:30 60.1 °F 42.4 °F 30.06 in Calm     52% 0.00 in WeatherDisplay:10.37 W/m2 SCT
01:45 59.7 °F 42.0 °F 30.06 in Calm     52% 0.00 in WeatherDisplay:10.37 W/m2 SCT
02:00 59.9 °F 43.7 °F 30.06 in Calm     55% 0.00 in WeatherDisplay:10.37 W/m2 SCT
02:15 59.6 °F 43.9 °F 30.06 in Calm     56% 0.00 in WeatherDisplay:10.37 W/m2 SCT
02:30 59.4 °F 44.1 °F 30.05 in Calm     57% 0.00 in WeatherDisplay:10.37 W/m2 SCT
03:00 59.1 °F 43.9 °F 30.05 in Calm     57% 0.00 in WeatherDisplay:10.37 W/m2 SCT
03:15 58.6 °F 43.9 °F 30.05 in Calm     58% 0.00 in WeatherDisplay:10.37 W/m2 SCT
03:30 58.9 °F 44.1 °F 30.05 in Calm     58% 0.00 in WeatherDisplay:10.37 W/m2 SCT
03:45 57.8 °F 43.1 °F 30.05 in Calm     58% 0.00 in WeatherDisplay:10.37 W/m2 SCT
04:00 57.8 °F 43.1 °F 30.05 in Calm     58% 0.00 in WeatherDisplay:10.37 W/m2 SCT
04:15 57.8 °F 43.1 °F 30.05 in Calm     58% 0.00 in WeatherDisplay:10.37 W/m2 SCT
04:30 57.8 °F 43.1 °F 30.05 in Calm     58% 0.00 in WeatherDisplay:10.37 W/m2 SCT
04:45 57.8 °F 43.1 °F 30.05 in Calm     58% 0.00 in WeatherDisplay:10.37 W/m2 SCT
05:00 57.8 °F 43.1 °F 30.05 in Calm     58% 0.00 in WeatherDisplay:10.37 W/m2 SCT
05:15 57.8 °F 43.1 °F 30.05 in Calm     58% 0.00 in WeatherDisplay:10.37 W/m2 SCT
05:30 57.8 °F 43.1 °F 30.05 in Calm     58% 0.00 in WeatherDisplay:10.37 W/m2 SCT
05:45 57.8 °F 43.1 °F 30.06 in Calm     58% 0.00 in WeatherDisplay:10.37 W/m2 SCT
06:00 57.8 °F 43.1 °F 30.06 in Calm     58% 0.00 in WeatherDisplay:10.37 W/m2 SCT
06:15 57.8 °F 43.1 °F 30.06 in Calm     58% 0.00 in WeatherDisplay:10.37 W/m2 SCT
06:30 57.8 °F 43.1 °F 30.06 in Calm     58% 0.00 in WeatherDisplay:10.37 W/m2 SCT
06:45 57.8 °F 43.1 °F 30.06 in Calm     58% 0.00 in WeatherDisplay:10.37 W/m2 SCT
07:00 57.8 °F 43.1 °F 30.06 in Calm     58% 0.00 in WeatherDisplay:10.37 W/m2 SCT
07:15 57.8 °F 43.1 °F 30.07 in Calm     58% 0.00 in WeatherDisplay:10.37 W/m2 SCT
07:30 57.8 °F 43.1 °F 30.07 in Calm     58% 0.00 in WeatherDisplay:10.37 W/m2 SCT
07:45 57.8 °F 43.1 °F 30.07 in Calm     58% 0.00 in WeatherDisplay:10.37 W/m2 SCT
08:00 57.8 °F 43.1 °F 30.07 in Calm     58% 0.00 in WeatherDisplay:10.37 W/m2 SCT
08:15 56.0 °F 50.3 °F 30.08 in Calm     81% 0.00 in WeatherDisplay:10.37 W/m2 SCT
08:30 57.7 °F 51.5 °F 30.09 in Calm     80% 0.00 in WeatherDisplay:10.37 W/m2 SCT
08:45 57.4 °F 51.3 °F 30.09 in Calm     80% 0.00 in WeatherDisplay:10.37 W/m2 SCT
09:00 57.4 °F 51.3 °F 30.09 in Calm     80% 0.00 in WeatherDisplay:10.37 W/m2 SCT
09:15 57.4 °F 51.3 °F 30.09 in Calm     80% 0.00 in WeatherDisplay:10.37 W/m2 SCT
09:30 68.6 °F 49.8 °F 30.09 in Calm     51% 0.00 in WeatherDisplay:10.37 W/m2 SCT
09:45 57.4 °F 51.3 °F 30.09 in Calm     80% 0.00 in WeatherDisplay:10.37 W/m2 SCT
10:00 70.7 °F 50.0 °F 30.10 in Calm   2.0 mph 48% 0.00 in WeatherDisplay:10.37 W/m2 SCT
10:15 70.7 °F 50.0 °F 30.10 in Calm     48% 0.00 in WeatherDisplay:10.37 W/m2 SCT
10:30 70.7 °F 50.0 °F 30.10 in Calm     48% 0.00 in WeatherDisplay:10.37 W/m2 SCT
10:45 70.7 °F 50.0 °F 30.10 in Calm     48% 0.00 in WeatherDisplay:10.37 W/m2 SCT
11:00 74.8 °F 46.8 °F 30.09 in Calm   1.0 mph 37% 0.00 in WeatherDisplay:10.37 W/m2 SCT
11:15 70.7 °F 50.0 °F 30.10 in Calm     48% 0.00 in WeatherDisplay:10.37 W/m2 SCT
11:30 76.2 °F 46.5 °F 30.09 in Calm   1.0 mph 35% 0.00 in WeatherDisplay:10.37 W/m2 SCT
11:45 76.6 °F 44.5 °F 30.08 in Calm   2.0 mph 32% 0.00 in WeatherDisplay:10.37 W/m2 SCT
12:00 77.8 °F 48.0 °F 30.08 in Calm   2.0 mph 35% 0.00 in WeatherDisplay:10.37 W/m2 SCT
12:15 78.4 °F 47.0 °F 30.07 in Calm   2.0 mph 33% 0.00 in WeatherDisplay:10.37 W/m2 SCT
12:30 80.6 °F 48.0 °F 30.06 in Calm   1.0 mph 32% 0.00 in WeatherDisplay:10.37 W/m2 SCT
12:45 81.2 °F 43.0 °F 30.06 in West 1.0 mph 2.0 mph 26% 0.00 in WeatherDisplay:10.37 W/m2 SCT
13:00 70.7 °F 50.0 °F 30.10 in Calm     48% 0.00 in WeatherDisplay:10.37 W/m2 SCT
13:15 83.3 °F 42.7 °F 30.02 in Calm   2.0 mph 24% 0.00 in WeatherDisplay:10.37 W/m2 SCT
13:30 84.0 °F 46.4 °F 30.01 in Calm   2.0 mph 27% 0.00 in WeatherDisplay:10.37 W/m2 SCT
13:45 83.7 °F 46.1 °F 30.00 in Calm   1.0 mph 27% 0.00 in WeatherDisplay:10.37 W/m2 SCT
14:00 83.8 °F 46.2 °F 30.00 in Calm     27% 0.00 in WeatherDisplay:10.37 W/m2 SCT
14:15 83.1 °F 43.6 °F 29.99 in Calm   3.0 mph 25% 0.00 in WeatherDisplay:10.37 W/m2 SCT
14:30 83.2 °F 42.6 °F 29.98 in Calm   2.0 mph 24% 0.00 in WeatherDisplay:10.37 W/m2 SCT
14:45 83.8 °F 46.2 °F 30.00 in Calm     27% 0.00 in WeatherDisplay:10.37 W/m2 SCT
15:00 83.8 °F 46.2 °F 30.00 in Calm     27% 0.00 in WeatherDisplay:10.37 W/m2 SCT
15:15 82.4 °F 45.1 °F 29.99 in Calm     27% 0.00 in WeatherDisplay:10.37 W/m2 SCT
15:30 82.7 °F 45.3 °F 29.99 in Calm   3.0 mph 27% 0.00 in WeatherDisplay:10.37 W/m2 SCT
15:45 82.3 °F 45.0 °F 30.00 in Calm     27% 0.00 in WeatherDisplay:10.37 W/m2 SCT
16:00 82.1 °F 44.8 °F 29.99 in Calm   1.0 mph 27% 0.00 in WeatherDisplay:10.37 W/m2 SCT
16:15 82.0 °F 43.7 °F 29.98 in Calm   1.0 mph 26% 0.00 in WeatherDisplay:10.37 W/m2 SCT
16:30 81.7 °F 43.5 °F 29.98 in Calm   3.0 mph 26% 0.00 in WeatherDisplay:10.37 W/m2 SCT
16:45 82.1 °F 44.8 °F 29.99 in Calm     27% 0.00 in WeatherDisplay:10.37 W/m2 SCT
17:00 81.4 °F 45.2 °F 29.97 in Calm   1.0 mph 28% 0.00 in WeatherDisplay:10.37 W/m2 SCT
17:15 81.2 °F 45.9 °F 29.97 in Calm   1.0 mph 29% 0.00 in WeatherDisplay:10.37 W/m2 SCT
17:30 81.4 °F 45.2 °F 29.97 in Calm     28% 0.00 in WeatherDisplay:10.37 W/m2 SCT
17:45 80.7 °F 47.2 °F 29.97 in Calm   2.0 mph 31% 0.00 in WeatherDisplay:10.37 W/m2 SCT
18:00 80.4 °F 47.8 °F 29.97 in Calm   2.0 mph 32% 0.00 in WeatherDisplay:10.37 W/m2 SCT
18:15 79.9 °F 48.2 °F 29.97 in Calm   1.0 mph 33% 0.00 in WeatherDisplay:10.37 W/m2 SCT
18:30 79.6 °F 48.0 °F 29.97 in Calm     33% 0.00 in WeatherDisplay:10.37 W/m2 SCT
18:45 79.6 °F 48.0 °F 29.97 in Calm     33% 0.00 in WeatherDisplay:10.37 W/m2 SCT
19:00 77.8 °F 49.5 °F 29.97 in Calm     37% 0.00 in WeatherDisplay:10.37 W/m2 SCT
19:15 77.5 °F 47.7 °F 29.96 in Calm   2.0 mph 35% 0.00 in WeatherDisplay:10.37 W/m2 SCT
19:30 76.9 °F 48.7 °F 29.96 in Calm     37% 0.00 in WeatherDisplay:10.37 W/m2 SCT
19:45 76.2 °F 47.3 °F 29.95 in Calm     36% 0.00 in WeatherDisplay:10.37 W/m2 SCT
20:00 76.5 °F 46.8 °F 29.96 in Calm     35% 0.00 in WeatherDisplay:10.37 W/m2 SCT
20:15 75.2 °F 47.1 °F 29.95 in Calm     37% 0.00 in WeatherDisplay:10.37 W/m2 SCT
20:30 75.2 °F 47.1 °F 29.95 in Calm     37% 0.00 in WeatherDisplay:10.37 W/m2 SCT
20:45 73.3 °F 50.1 °F 29.95 in Calm     44% 0.00 in WeatherDisplay:10.37 W/m2 SCT
21:00 72.7 °F 50.1 °F 29.95 in Calm     45% 0.00 in WeatherDisplay:10.37 W/m2 SCT
21:15 71.8 °F 48.7 °F 29.96 in Calm     44% 0.00 in WeatherDisplay:10.37 W/m2 SCT
21:30 70.9 °F 50.2 °F 29.97 in Calm     48% 0.00 in WeatherDisplay:10.37 W/m2 SCT
21:45 70.5 °F 49.9 °F 29.97 in Calm     48% 0.00 in WeatherDisplay:10.37 W/m2 SCT
22:00 70.5 °F 49.9 °F 29.97 in Calm     48% 0.00 in WeatherDisplay:10.37 W/m2 SCT
22:15 70.0 °F 49.4 °F 29.96 in Calm     48% 0.00 in WeatherDisplay:10.37 W/m2 SCT
22:30 70.0 °F 50.0 °F 29.96 in Calm     49% 0.00 in WeatherDisplay:10.37 W/m2 SCT
22:45 70.0 °F 50.0 °F 29.96 in Calm     49% 0.00 in WeatherDisplay:10.37 W/m2 SCT
23:00 70.0 °F 49.4 °F 29.95 in Calm     48% 0.00 in WeatherDisplay:10.37 W/m2 SCT
23:15 70.2 °F 49.6 °F 29.96 in Calm     48% 0.00 in WeatherDisplay:10.37 W/m2 SCT
23:30 70.2 °F 49.6 °F 29.96 in Calm     48% 0.00 in WeatherDisplay:10.37 W/m2 SCT
23:45 70.2 °F 50.1 °F 29.95 in Calm     49% 0.00 in WeatherDisplay:10.37 W/m2 SCT
Piedmont Bend
Compliments of Weather Underground - 4 mb